Time;durP1;ratioP1;P1;durP2;ratioP2;P2;SDS_P1;SDS_P2;PMS_P1;PMS_P2;Temp;Humidity;BMP_temperature;BMP_pressure;BME280_temperature;BME280_humidity;BME280_pressure;Samples;Min_cycle;Max_cycle;Signal;HPM_P1;HPM_P2
2021/01/24 00:01:32;;;;;;;14.48;7.43;;;4.80;99.90;;;;;;5039711;28;20033;-90
2021/01/24 00:04:00;;;;;;;13.98;7.47;;;4.80;99.90;;;;;;5038977;28;20032;-89
2021/01/24 00:06:25;;;;;;;11.20;7.15;;;4.70;99.90;;;;;;5057294;28;20029;-89
2021/01/24 00:08:51;;;;;;;10.75;6.40;;;4.80;99.90;;;;;;5042962;28;20032;-89
2021/01/24 00:11:17;;;;;;;13.27;7.03;;;4.80;99.90;;;;;;5028133;28;20025;-89
2021/01/24 00:13:42;;;;;;;13.63;6.72;;;4.90;99.90;;;;;;5060862;28;20053;-90
2021/01/24 00:16:08;;;;;;;10.98;6.45;;;4.90;99.90;;;;;;5043019;28;20086;-89
2021/01/24 00:18:34;;;;;;;13.43;6.32;;;4.80;99.90;;;;;;5023092;28;20044;-89
2021/01/24 00:21:00;;;;;;;13.65;5.90;;;4.80;99.90;;;;;;5037858;28;20031;-90
2021/01/24 00:23:25;;;;;;;9.57;6.03;;;4.80;99.90;;;;;;5038629;28;20111;-90
2021/01/24 00:25:51;;;;;;;14.00;6.53;;;4.60;99.90;;;;;;5037639;28;20083;-89
2021/01/24 00:28:21;;;;;;;14.32;5.88;;;4.60;99.90;;;;;;5038077;28;20078;-90
2021/01/24 00:30:47;;;;;;;11.50;4.82;;;4.50;99.90;;;;;;5056256;28;20021;-89
2021/01/24 00:33:13;;;;;;;10.38;4.57;;;4.40;99.90;;;;;;5037479;28;20052;-90
2021/01/24 00:35:39;;;;;;;9.98;4.47;;;4.30;99.90;;;;;;5038214;28;20032;-89
2021/01/24 00:38:04;;;;;;;7.20;4.43;;;4.30;99.90;;;;;;5038918;28;20047;-90
2021/01/24 00:40:32;;;;;;;9.88;5.30;;;4.40;99.90;;;;;;5040434;28;20348;-89
2021/01/24 00:42:58;;;;;;;10.13;4.97;;;4.30;99.90;;;;;;5036315;28;20053;-89
2021/01/24 00:45:24;;;;;;;8.38;4.22;;;4.30;99.90;;;;;;5021295;28;20041;-89
2021/01/24 00:47:49;;;;;;;7.35;4.47;;;4.30;99.90;;;;;;5039230;28;20089;-90
2021/01/24 00:50:15;;;;;;;10.73;3.80;;;4.20;99.90;;;;;;5023045;28;20030;-89
2021/01/24 00:52:41;;;;;;;10.27;3.63;;;4.30;99.90;;;;;;5040470;28;20109;-89
2021/01/24 00:55:09;;;;;;;6.72;3.53;;;4.30;99.90;;;;;;5048309;28;20372;-89
2021/01/24 00:57:35;;;;;;;9.23;3.10;;;4.20;99.90;;;;;;5037881;28;20025;-90
2021/01/24 01:00:04;;;;;;;5.72;3.00;;;4.20;99.90;;;;;;5056454;28;20048;-90
2021/01/24 01:02:32;;;;;;;6.40;3.13;;;4.20;99.90;;;;;;5057045;28;20028;-91
2021/01/24 01:04:57;;;;;;;5.03;3.03;;;4.10;99.90;;;;;;5056739;28;20029;-89
2021/01/24 01:07:23;;;;;;;5.88;2.95;;;4.10;99.90;;;;;;5056436;28;20455;-90
2021/01/24 01:09:51;;;;;;;5.47;2.67;;;4.10;99.90;;;;;;5052988;28;20447;-89
2021/01/24 01:12:17;;;;;;;9.93;2.95;;;4.20;99.90;;;;;;5047889;28;20025;-89
2021/01/24 01:14:44;;;;;;;7.35;3.20;;;4.20;99.90;;;;;;5057842;28;20006;-90
2021/01/24 01:17:09;;;;;;;7.30;2.67;;;4.20;99.90;;;;;;5057955;28;20064;-88
2021/01/24 01:19:35;;;;;;;5.82;2.58;;;4.20;99.90;;;;;;5057517;28;20013;-89
2021/01/24 01:22:01;;;;;;;6.35;2.53;;;4.20;99.90;;;;;;5057099;28;20045;-90
2021/01/24 01:24:26;;;;;;;6.35;2.90;;;4.20;99.90;;;;;;5057392;28;20085;-88
2021/01/24 01:26:52;;;;;;;9.18;2.97;;;4.20;99.90;;;;;;5057241;28;20026;-86
2021/01/24 01:29:18;;;;;;;7.72;2.97;;;4.30;99.90;;;;;;5057007;28;20030;-89
2021/01/24 01:31:44;;;;;;;7.28;3.00;;;4.30;99.90;;;;;;5046308;28;20156;-88
2021/01/24 01:34:09;;;;;;;5.90;2.75;;;4.30;99.90;;;;;;5047634;28;20029;-89
2021/01/24 01:36:35;;;;;;;5.85;3.05;;;4.30;99.90;;;;;;5052022;28;20029;-86
2021/01/24 01:39:02;;;;;;;4.63;2.25;;;4.30;99.90;;;;;;5054257;28;20276;-87
2021/01/24 01:41:38;;;;;;;6.88;3.15;;;4.30;99.90;;;;;;5046105;28;20029;-89
2021/01/24 01:44:04;;;;;;;7.78;2.67;;;4.30;99.90;;;;;;5040276;28;20120;-88
2021/01/24 01:46:30;;;;;;;11.15;2.90;;;4.40;99.90;;;;;;5039265;28;20029;-89
2021/01/24 01:48:56;;;;;;;7.20;3.13;;;4.20;99.90;;;;;;5036884;28;20017;-88
2021/01/24 01:51:22;;;;;;;6.28;2.28;;;4.30;99.90;;;;;;5016571;28;20128;-89
2021/01/24 01:53:48;;;;;;;8.60;2.70;;;4.20;99.90;;;;;;5032401;28;20036;-88
2021/01/24 01:56:15;;;;;;;9.05;2.92;;;4.20;99.90;;;;;;5016238;28;20037;-89
2021/01/24 01:58:41;;;;;;;7.07;3.40;;;4.10;99.90;;;;;;5032415;28;20035;-88
2021/01/24 02:01:21;;;;;;;7.68;2.17;;;4.20;99.90;;;;;;5032380;28;20030;-89
2021/01/24 02:04:12;;;;;;;6.68;2.00;;;4.20;99.90;;;;;;5035809;28;20029;-89
2021/01/24 02:06:47;;;;;;;6.63;2.50;;;4.20;99.90;;;;;;5036529;28;20037;-89
2021/01/24 02:09:34;;;;;;;5.30;2.28;;;4.30;99.90;;;;;;5036373;28;20030;-88
2021/01/24 02:12:06;;;;;;;4.72;1.80;;;4.30;99.90;;;;;;5036387;28;20430;-88
2021/01/24 02:14:39;;;;;;;3.45;2.30;;;4.30;99.90;;;;;;5036348;28;20079;-89
2021/01/24 02:17:08;;;;;;;8.40;2.10;;;4.30;99.90;;;;;;5036260;28;20029;-88
2021/01/24 02:19:52;;;;;;;7.05;2.08;;;4.30;99.90;;;;;;5036317;28;20025;-89
2021/01/24 02:22:20;;;;;;;5.32;1.85;;;4.30;99.90;;;;;;5036330;28;20034;-88
2021/01/24 02:24:53;;;;;;;5.07;1.80;;;4.30;99.90;;;;;;5036237;28;20491;-89
2021/01/24 02:27:59;;;;;;;10.18;2.28;;;4.30;99.90;;;;;;5036333;28;20021;-89
2021/01/24 02:30:30;;;;;;;3.00;1.77;;;4.30;99.90;;;;;;5035825;28;20056;-89
2021/01/24 02:33:06;;;;;;;7.60;2.15;;;4.30;99.90;;;;;;5035608;28;20030;-88
2021/01/24 02:35:39;;;;;;;5.30;1.80;;;4.30;99.90;;;;;;5035537;28;20033;-88
2021/01/24 02:38:06;;;;;;;13.15;2.30;;;4.30;99.90;;;;;;5035470;28;20029;-88
2021/01/24 02:40:35;;;;;;;10.15;2.03;;;4.30;99.90;;;;;;5035721;28;20029;-88
2021/01/24 02:43:04;;;;;;;6.50;1.85;;;4.30;99.90;;;;;;5035140;28;20057;-88
2021/01/24 02:45:32;;;;;;;4.55;1.75;;;4.40;99.90;;;;;;5035353;28;20041;-88
2021/01/24 02:48:02;;;;;;;4.00;1.30;;;4.30;99.90;;;;;;5035384;28;20038;-89
2021/01/24 02:50:32;;;;;;;6.32;1.65;;;4.30;99.90;;;;;;5035642;28;20021;-88
2021/01/24 02:52:59;;;;;;;4.28;1.60;;;4.40;99.90;;;;;;5036583;28;20079;-88
2021/01/24 02:55:29;;;;;;;3.33;1.45;;;4.40;99.90;;;;;;5035132;28;20064;-89
2021/01/24 02:57:59;;;;;;;6.70;1.95;;;4.40;99.90;;;;;;5035624;28;20033;-88
2021/01/24 03:00:28;;;;;;;4.70;2.00;;;4.40;99.90;;;;;;5036544;28;20476;-88
2021/01/24 03:02:55;;;;;;;4.15;1.60;;;4.50;99.90;;;;;;5034987;28;20029;-88
2021/01/24 03:05:21;;;;;;;5.88;1.50;;;4.50;99.90;;;;;;5034828;28;20491;-89
2021/01/24 03:07:47;;;;;;;4.32;1.40;;;4.60;99.90;;;;;;5019147;28;20034;-88
2021/01/24 03:10:15;;;;;;;2.67;1.50;;;4.60;99.90;;;;;;5036669;28;20028;-88
2021/01/24 03:12:59;;;;;;;4.25;1.50;;;4.60;99.90;;;;;;5018567;28;20472;-88
2021/01/24 03:15:27;;;;;;;4.93;1.45;;;4.70;99.90;;;;;;5034317;28;20053;-88
2021/01/24 03:17:57;;;;;;;7.88;1.58;;;4.80;99.90;;;;;;5035133;28;20120;-89
2021/01/24 03:20:25;;;;;;;4.10;1.33;;;4.80;99.90;;;;;;5034812;28;20037;-88
2021/01/24 03:22:53;;;;;;;6.25;1.60;;;4.80;99.90;;;;;;5036091;28;20103;-88
2021/01/24 03:25:26;;;;;;;4.35;1.80;;;4.80;99.90;;;;;;5018839;28;20487;-89
2021/01/24 03:27:52;;;;;;;5.97;2.20;;;4.70;99.90;;;;;;5034769;28;20029;-89
2021/01/24 03:30:19;;;;;;;4.97;1.83;;;4.60;99.90;;;;;;5018716;28;20032;-89
2021/01/24 03:32:44;;;;;;;6.13;1.77;;;4.60;99.90;;;;;;5035374;28;20127;-89
2021/01/24 03:35:10;;;;;;;6.22;1.40;;;4.50;99.90;;;;;;5049982;28;20025;-89
2021/01/24 03:37:38;;;;;;;3.33;1.30;;;4.40;99.90;;;;;;5049302;28;20025;-89
2021/01/24 03:40:05;;;;;;;7.15;2.10;;;4.30;99.90;;;;;;5039743;28;20078;-89
2021/01/24 03:42:31;;;;;;;16.35;2.55;;;4.20;99.90;;;;;;5047754;28;20054;-89
2021/01/24 03:44:58;;;;;;;5.75;2.25;;;4.10;99.90;;;;;;5018590;28;20365;-89
2021/01/24 03:47:23;;;;;;;11.05;2.20;;;4.10;99.90;;;;;;5021968;28;20069;-89
2021/01/24 03:49:49;;;;;;;2.97;1.35;;;3.90;99.90;;;;;;5029955;28;20040;-90
2021/01/24 03:52:17;;;;;;;8.13;1.98;;;3.60;99.90;;;;;;5034667;28;20032;-89
2021/01/24 03:54:42;;;;;;;7.13;2.08;;;3.60;99.90;;;;;;5032676;28;20029;-90
2021/01/24 03:57:08;;;;;;;12.30;2.38;;;3.70;99.90;;;;;;5035442;28;20025;-89
2021/01/24 03:59:36;;;;;;;6.18;2.03;;;3.70;99.90;;;;;;5058551;28;20020;-90
2021/01/24 04:02:02;;;;;;;8.45;2.10;;;3.60;99.90;;;;;;5027427;28;20071;-90
2021/01/24 04:04:28;;;;;;;4.57;1.50;;;3.40;99.90;;;;;;5018705;28;20030;-90
2021/01/24 04:06:53;;;;;;;12.00;1.70;;;3.30;99.90;;;;;;5018545;28;20467;-90
2021/01/24 04:09:19;;;;;;;4.60;1.52;;;3.20;99.90;;;;;;5017638;28;20026;-91
2021/01/24 04:11:45;;;;;;;5.38;1.17;;;3.20;99.90;;;;;;5035946;28;20383;-91
2021/01/24 04:14:16;;;;;;;5.70;1.25;;;3.20;99.90;;;;;;5035318;28;20036;-90
2021/01/24 04:16:44;;;;;;;4.18;1.70;;;3.10;99.90;;;;;;5017590;28;20124;-90
2021/01/24 04:19:10;;;;;;;6.10;1.23;;;3.30;99.90;;;;;;5017625;28;20029;-90
2021/01/24 04:21:38;;;;;;;5.90;1.33;;;3.30;99.90;;;;;;5017702;28;20423;-90
2021/01/24 04:24:07;;;;;;;3.40;0.80;;;3.10;99.90;;;;;;5017855;28;20025;-91
2021/01/24 04:26:35;;;;;;;1.92;1.05;;;3.20;99.90;;;;;;5017652;28;20093;-91
2021/01/24 04:29:01;;;;;;;3.30;1.08;;;3.30;99.90;;;;;;5017817;28;20029;-91
2021/01/24 04:31:27;;;;;;;2.92;1.42;;;3.50;99.90;;;;;;5017907;28;20135;-91
2021/01/24 04:33:53;;;;;;;4.20;1.20;;;3.50;99.90;;;;;;5017659;28;20021;-90
2021/01/24 04:36:22;;;;;;;10.35;1.40;;;3.60;99.90;;;;;;5017323;28;20030;-89
2021/01/24 04:38:48;;;;;;;2.17;1.38;;;3.60;99.90;;;;;;5017285;28;20033;-90
2021/01/24 04:41:14;;;;;;;4.55;1.20;;;3.70;99.90;;;;;;5017012;28;20052;-89
2021/01/24 04:43:40;;;;;;;2.33;1.20;;;3.80;99.90;;;;;;5013992;28;20049;-90
2021/01/24 04:46:07;;;;;;;5.95;1.45;;;3.80;99.90;;;;;;5036869;28;20032;-90
2021/01/24 04:48:34;;;;;;;2.72;1.30;;;3.80;99.90;;;;;;5036785;28;20432;-89
2021/01/24 04:51:02;;;;;;;5.10;1.75;;;3.90;99.90;;;;;;5020594;28;20597;-90
2021/01/24 04:53:29;;;;;;;4.30;1.38;;;3.90;99.90;;;;;;5020851;28;20183;-90
2021/01/24 04:55:56;;;;;;;2.95;1.50;;;3.90;99.90;;;;;;5036412;28;20035;-90
2021/01/24 04:58:21;;;;;;;5.05;1.65;;;3.90;99.90;;;;;;5035905;28;20029;-89
2021/01/24 05:00:47;;;;;;;2.95;1.50;;;3.90;99.90;;;;;;5036647;28;20029;-90
2021/01/24 05:03:17;;;;;;;4.88;1.70;;;3.80;99.90;;;;;;5019773;28;20025;-90
2021/01/24 05:05:42;;;;;;;4.55;1.83;;;3.80;99.90;;;;;;5036117;28;20056;-90
2021/01/24 05:08:11;;;;;;;7.32;1.70;;;3.80;99.90;;;;;;5053937;28;20032;-90
2021/01/24 05:10:37;;;;;;;5.28;1.60;;;3.80;99.90;;;;;;5020031;28;20119;-91
2021/01/24 05:13:03;;;;;;;5.30;1.80;;;3.70;99.90;;;;;;5035883;28;20056;-90
2021/01/24 05:15:29;;;;;;;3.55;2.15;;;3.70;99.90;;;;;;5038006;28;20493;-90
2021/01/24 05:17:57;;;;;;;2.85;1.77;;;3.50;99.90;;;;;;5019751;28;20098;-90
2021/01/24 05:20:29;;;;;;;3.30;1.80;;;3.50;99.90;;;;;;5019939;28;20040;-90
2021/01/24 05:22:56;;;;;;;4.22;1.90;;;3.50;99.90;;;;;;5036535;28;20029;-90
2021/01/24 05:25:34;;;;;;;4.32;1.90;;;3.60;99.90;;;;;;5036273;28;20482;-90
2021/01/24 05:28:23;;;;;;;4.20;2.00;;;3.60;99.90;;;;;;5036178;28;20029;-90
2021/01/24 05:30:50;;;;;;;2.97;1.75;;;3.50;99.90;;;;;;5036425;28;20028;-89
2021/01/24 05:33:17;;;;;;;4.03;2.20;;;3.40;99.90;;;;;;5035904;28;20052;-90
2021/01/24 05:35:51;;;;;;;3.78;1.92;;;3.50;99.90;;;;;;5035754;28;20036;-90
2021/01/24 05:38:30;;;;;;;6.18;2.15;;;3.50;99.90;;;;;;5035529;28;20033;-90
2021/01/24 05:41:00;;;;;;;3.58;2.13;;;3.50;99.90;;;;;;5035748;28;20162;-90
2021/01/24 05:43:27;;;;;;;6.05;2.40;;;3.60;99.90;;;;;;5046702;28;20065;-90
2021/01/24 05:45:55;;;;;;;3.70;2.05;;;3.40;99.90;;;;;;5015960;28;20039;-90
2021/01/24 05:48:21;;;;;;;3.95;2.63;;;3.40;99.90;;;;;;4998949;28;20056;-90
2021/01/24 05:50:47;;;;;;;4.78;2.08;;;3.50;99.90;;;;;;5016230;28;20463;-90
2021/01/24 05:53:13;;;;;;;3.92;2.10;;;3.50;99.90;;;;;;4999262;28;20029;-90
2021/01/24 05:55:40;;;;;;;3.25;2.03;;;3.50;99.90;;;;;;5015866;28;20125;-90
2021/01/24 05:58:22;;;;;;;4.35;2.20;;;3.50;99.90;;;;;;5016054;28;20163;-90
2021/01/24 06:00:54;;;;;;;4.45;2.50;;;3.50;99.90;;;;;;5015651;28;20036;-90
2021/01/24 06:03:20;;;;;;;5.55;2.22;;;3.40;99.90;;;;;;5015528;28;20360;-90
2021/01/24 06:05:46;;;;;;;5.28;2.75;;;3.40;99.90;;;;;;5015760;28;20032;-90
2021/01/24 06:08:16;;;;;;;8.50;2.35;;;3.30;99.90;;;;;;5038610;28;20028;-91
2021/01/24 06:10:43;;;;;;;6.93;2.20;;;3.30;99.90;;;;;;5028746;28;20033;-89
2021/01/24 06:13:17;;;;;;;5.82;2.30;;;3.20;99.90;;;;;;5021015;28;20033;-90
2021/01/24 06:15:46;;;;;;;9.77;2.65;;;3.10;99.90;;;;;;5015667;28;20080;-90
2021/01/24 06:18:17;;;;;;;4.72;2.08;;;3.10;99.90;;;;;;5015696;28;20037;-91
2021/01/24 06:20:55;;;;;;;8.52;2.85;;;3.10;99.90;;;;;;5015719;28;20057;-90
2021/01/24 06:23:52;;;;;;;4.05;2.45;;;3.00;99.90;;;;;;5033134;28;20102;-91
2021/01/24 06:26:19;;;;;;;4.20;2.30;;;3.10;99.90;;;;;;5032267;28;20475;-90
2021/01/24 06:28:48;;;;;;;7.40;2.53;;;3.20;99.90;;;;;;5015423;28;20032;-90
2021/01/24 06:31:23;;;;;;;3.95;2.00;;;3.10;99.90;;;;;;5014975;28;20383;-90
2021/01/24 06:33:52;;;;;;;;;;;3.10;99.90;;;;;;5016334;28;20487;-90
2021/01/24 06:36:21;;;;;;;5.70;2.70;;;3.10;99.90;;;;;;5031449;28;19909;-90
2021/01/24 06:38:54;;;;;;;6.35;2.30;;;3.10;99.90;;;;;;5015626;28;20033;-90
2021/01/24 06:41:46;;;;;;;5.85;2.33;;;3.10;99.90;;;;;;5015031;28;20135;-90
2021/01/24 06:44:35;;;;;;;5.70;2.58;;;3.10;99.90;;;;;;5027562;28;20507;-90
2021/01/24 06:47:02;;;;;;;4.97;2.47;;;3.00;99.90;;;;;;5031630;28;20034;-90
2021/01/24 06:49:44;;;;;;;7.80;2.38;;;3.10;99.90;;;;;;5032367;28;20026;-91
2021/01/24 06:52:21;;;;;;;9.77;2.60;;;3.10;99.90;;;;;;5021514;28;20036;-90
2021/01/24 06:54:49;;;;;;;4.80;2.20;;;3.20;99.90;;;;;;5037857;28;20037;-90
2021/01/24 06:57:18;;;;;;;8.57;3.33;;;3.20;99.90;;;;;;5035132;28;20124;-94
2021/01/24 06:59:43;;;;;;;6.95;2.75;;;3.20;99.90;;;;;;5035151;28;20448;-90
2021/01/24 07:02:34;;;;;;;8.13;2.10;;;3.20;99.90;;;;;;5035141;28;20029;-91
2021/01/24 07:05:10;;;;;;;10.68;2.90;;;3.20;99.90;;;;;;5037042;28;20034;-91
2021/01/24 07:07:37;;;;;;;5.07;2.10;;;3.10;99.90;;;;;;5035127;28;20029;-90
2021/01/24 07:10:06;;;;;;;8.30;2.30;;;3.10;99.90;;;;;;5019187;28;20026;-91
2021/01/24 07:12:41;;;;;;;5.18;2.00;;;3.00;99.90;;;;;;5035206;28;20424;-92
2021/01/24 07:15:19;;;;;;;7.95;2.53;;;3.00;99.90;;;;;;5035179;28;20150;-90
2021/01/24 07:17:54;;;;;;;3.97;2.40;;;3.00;99.90;;;;;;5035320;28;20095;-90
2021/01/24 07:20:20;;;;;;;;;;;3.00;99.90;;;;;;5035212;28;20391;-90
2021/01/24 07:22:46;;;;;;;6.10;1.80;;;3.00;99.90;;;;;;5042508;28;19992;-90
2021/01/24 07:25:12;;;;;;;7.20;2.13;;;3.00;99.90;;;;;;5019873;28;20112;-90
2021/01/24 07:27:38;;;;;;;5.45;1.55;;;3.00;99.90;;;;;;5034795;28;20075;-91
2021/01/24 07:30:06;;;;;;;5.60;1.92;;;3.00;99.90;;;;;;5036069;28;20030;-90
2021/01/24 07:32:32;;;;;;;10.32;1.70;;;3.00;99.90;;;;;;5035834;28;20034;-91
2021/01/24 07:34:58;;;;;;;8.02;2.97;;;2.90;99.90;;;;;;5038061;28;20030;-91
2021/01/24 07:37:24;;;;;;;7.10;2.40;;;2.90;99.90;;;;;;5022596;28;20415;-90
2021/01/24 07:39:52;;;;;;;12.65;2.53;;;3.00;99.90;;;;;;5042736;28;20029;-91
2021/01/24 07:42:18;;;;;;;7.80;2.55;;;3.10;99.90;;;;;;5043257;28;20027;-90
2021/01/24 07:44:45;;;;;;;8.05;2.05;;;3.20;99.90;;;;;;5040151;28;20048;-89
2021/01/24 07:47:15;;;;;;;7.97;2.20;;;3.30;99.90;;;;;;5040149;28;20041;-90
2021/01/24 07:49:40;;;;;;;10.45;2.65;;;3.40;99.90;;;;;;5038084;28;20028;-90
2021/01/24 07:52:07;;;;;;;8.60;2.10;;;3.50;99.90;;;;;;5038389;28;20119;-90
2021/01/24 07:54:40;;;;;;;7.53;2.63;;;3.60;99.90;;;;;;5055596;28;20028;-89
2021/01/24 07:57:11;;;;;;;16.25;2.70;;;3.60;99.90;;;;;;5038002;28;20029;-90
2021/01/24 07:59:37;;;;;;;15.25;2.40;;;3.60;99.90;;;;;;5038240;28;20036;-89
2021/01/24 08:02:06;;;;;;;12.63;3.67;;;3.50;99.90;;;;;;5020958;28;20029;-90
2021/01/24 08:04:38;;;;;;;9.15;2.28;;;3.50;99.90;;;;;;5038548;28;20028;-92
2021/01/24 08:07:06;;;;;;;8.10;2.30;;;3.50;99.90;;;;;;5056029;28;20401;-91
2021/01/24 08:09:35;;;;;;;12.90;2.97;;;3.60;99.90;;;;;;5037619;28;20467;-89
2021/01/24 08:12:10;;;;;;;10.05;3.28;;;3.60;99.90;;;;;;5037776;28;20028;-90
2021/01/24 08:14:42;;;;;;;7.60;3.03;;;3.60;99.90;;;;;;5056130;28;20114;-89
2021/01/24 08:17:11;;;;;;;9.80;3.55;;;3.70;99.90;;;;;;5038106;28;20029;-89
2021/01/24 08:19:40;;;;;;;11.32;2.75;;;3.50;99.90;;;;;;5037978;28;20040;-90
2021/01/24 08:22:06;;;;;;;8.48;2.92;;;3.50;99.90;;;;;;5046922;28;20094;-90
2021/01/24 08:24:32;;;;;;;10.82;2.40;;;3.40;99.90;;;;;;5054656;28;20025;-89
2021/01/24 08:27:01;;;;;;;8.68;3.20;;;3.40;99.90;;;;;;5049753;28;20376;-88
2021/01/24 08:29:37;;;;;;;11.70;3.05;;;3.50;99.90;;;;;;5021612;28;20087;-89
2021/01/24 08:32:08;;;;;;;11.88;3.13;;;3.50;99.90;;;;;;5037050;28;20051;-88
2021/01/24 08:34:35;;;;;;;10.32;2.70;;;3.60;99.90;;;;;;5055627;28;20478;-89
2021/01/24 08:37:04;;;;;;;9.73;3.00;;;3.70;99.90;;;;;;5037424;28;20029;-89
2021/01/24 08:39:31;;;;;;;8.10;2.97;;;3.70;99.90;;;;;;5020910;28;20128;-89
2021/01/24 08:41:56;;;;;;;8.38;2.97;;;3.80;99.90;;;;;;5037766;28;20029;-90
2021/01/24 08:44:22;;;;;;;7.30;3.28;;;3.90;99.90;;;;;;5037472;28;20568;-89
2021/01/24 08:46:52;;;;;;;7.40;3.10;;;4.00;99.90;;;;;;5037960;28;20028;-90
2021/01/24 08:49:29;;;;;;;12.07;3.35;;;4.00;99.90;;;;;;5038174;28;20032;-90
2021/01/24 08:52:03;;;;;;;7.45;3.65;;;4.10;99.90;;;;;;5037702;28;20379;-88
2021/01/24 08:54:32;;;;;;;9.77;3.45;;;4.60;99.90;;;;;;5037993;28;20029;-90
2021/01/24 08:57:15;;;;;;;12.70;4.25;;;5.20;99.90;;;;;;5056003;28;20025;-90
2021/01/24 08:59:50;;;;;;;9.35;3.40;;;6.00;99.90;;;;;;5022608;28;20040;-90
2021/01/24 09:02:29;;;;;;;;;;;6.60;99.90;;;;;;5039848;28;20048;-90
2021/01/24 09:04:55;;;;;;;9.73;2.13;;;5.70;99.90;;;;;;5041309;28;19905;-90
2021/01/24 09:07:21;;;;;;;5.60;2.47;;;4.80;99.90;;;;;;5041683;28;20036;-90
2021/01/24 09:09:53;;;;;;;7.32;2.40;;;4.30;99.90;;;;;;5041411;28;20025;-89
2021/01/24 09:12:22;;;;;;;5.93;1.77;;;3.90;99.90;;;;;;5040725;28;20029;-89
2021/01/24 09:14:53;;;;;;;4.50;2.05;;;3.60;99.90;;;;;;5041713;28;20025;-90
2021/01/24 09:17:20;;;;;;;4.00;1.60;;;3.40;99.90;;;;;;5028173;28;20032;-89
2021/01/24 09:19:47;;;;;;;5.15;1.40;;;3.40;99.90;;;;;;5046201;28;20032;-90
2021/01/24 09:22:17;;;;;;;2.10;1.52;;;3.20;99.90;;;;;;5046333;28;20068;-91
2021/01/24 09:24:46;;;;;;;7.15;1.90;;;3.10;99.90;;;;;;5056839;28;20033;-95
2021/01/24 09:27:13;;;;;;;3.88;1.75;;;3.10;99.90;;;;;;5080281;28;20036;-92
2021/01/24 09:29:40;;;;;;;9.50;1.85;;;3.10;99.90;;;;;;5079068;28;20052;-92
2021/01/24 09:32:10;;;;;;;7.53;2.00;;;3.20;99.90;;;;;;5080463;28;20028;-90
2021/01/24 09:34:36;;;;;;;3.60;2.08;;;3.30;99.90;;;;;;5079540;28;20074;-94
2021/01/24 09:37:05;;;;;;;9.35;2.35;;;3.50;99.90;;;;;;5077625;28;20017;-88
2021/01/24 09:39:33;;;;;;;5.15;2.83;;;3.70;99.90;;;;;;5041531;28;20071;-90
2021/01/24 09:42:01;;;;;;;7.65;2.95;;;3.80;99.90;;;;;;5061128;28;20025;-90
2021/01/24 09:44:32;;;;;;;7.20;3.08;;;3.90;99.90;;;;;;5070066;28;20076;-90
2021/01/24 09:47:00;;;;;;;4.97;3.03;;;4.10;99.90;;;;;;5075152;28;20096;-89
2021/01/24 09:49:28;;;;;;;7.35;2.60;;;4.20;99.90;;;;;;5076995;28;20013;-89
2021/01/24 09:51:54;;;;;;;9.02;3.08;;;4.40;99.90;;;;;;5076072;28;20111;-89
2021/01/24 09:54:20;;;;;;;10.13;3.63;;;4.40;99.90;;;;;;5076018;28;20029;-92
2021/01/24 09:56:48;;;;;;;6.15;3.47;;;4.20;99.90;;;;;;5070798;28;20029;-91
2021/01/24 09:59:15;;;;;;;6.90;3.72;;;4.40;99.90;;;;;;5067708;28;20111;-90
2021/01/24 10:01:44;;;;;;;7.72;3.50;;;4.20;99.90;;;;;;5061344;28;20482;-91
2021/01/24 10:04:12;;;;;;;5.78;3.28;;;4.30;99.90;;;;;;5060046;28;20025;-90
2021/01/24 10:06:39;;;;;;;6.57;3.20;;;4.50;99.90;;;;;;5044582;28;20029;-92
2021/01/24 10:09:08;;;;;;;9.48;4.35;;;4.60;99.90;;;;;;5061859;28;20029;-91
2021/01/24 10:11:44;;;;;;;;;;;;;;;;;;;;;
2021/01/24 10:14:10;;;;;;;9.43;3.58;;;4.80;99.90;;;;;;5052994;28;20124;-93
2021/01/24 10:16:41;;;;;;;10.00;3.55;;;4.80;99.90;;;;;;5053728;28;20107;-90
2021/01/24 10:19:13;;;;;;;8.63;3.35;;;4.80;99.90;;;;;;5052860;28;20083;-91
2021/01/24 10:21:45;;;;;;;6.90;3.53;;;4.90;99.90;;;;;;5035730;28;20025;-91
2021/01/24 10:24:10;;;;;;;7.55;3.22;;;4.90;99.90;;;;;;5052885;28;20032;-91
2021/01/24 10:26:36;;;;;;;11.80;3.97;;;4.90;99.90;;;;;;5057303;28;20053;-90
2021/01/24 10:29:02;;;;;;;9.90;3.58;;;5.00;99.90;;;;;;5055589;28;20045;-91
2021/01/24 10:31:31;;;;;;;14.55;3.47;;;5.00;99.90;;;;;;5056594;28;20028;-91
2021/01/24 10:33:58;;;;;;;6.93;3.00;;;5.00;99.90;;;;;;5055363;28;20063;-91
2021/01/24 10:36:38;;;;;;;6.40;2.95;;;5.00;99.90;;;;;;5056290;28;20554;-91
2021/01/24 10:39:05;;;;;;;7.82;2.95;;;5.10;99.90;;;;;;5055797;28;20021;-90
2021/01/24 10:41:30;;;;;;;8.55;2.55;;;5.10;99.90;;;;;;5055283;28;20177;-89
2021/01/24 10:43:58;;;;;;;8.98;2.75;;;5.20;99.90;;;;;;5060732;28;20068;-90
2021/01/24 10:46:24;;;;;;;8.05;2.90;;;5.20;99.90;;;;;;5050801;28;20490;-90
2021/01/24 10:48:52;;;;;;;14.50;2.88;;;5.20;99.90;;;;;;5069781;28;20021;-90
2021/01/24 10:51:18;;;;;;;7.82;3.28;;;5.20;99.90;;;;;;5040889;28;20128;-90
2021/01/24 10:53:44;;;;;;;7.65;2.78;;;5.20;99.90;;;;;;5055477;28;20071;-90
2021/01/24 10:56:12;;;;;;;11.73;2.50;;;5.20;99.90;;;;;;5055780;28;20063;-89
2021/01/24 10:58:38;;;;;;;11.65;2.90;;;5.20;99.90;;;;;;5056725;28;20037;-91
2021/01/24 11:01:04;;;;;;;7.18;2.63;;;5.30;99.90;;;;;;5055263;28;20029;-91
2021/01/24 11:03:30;;;;;;;9.38;3.50;;;5.40;99.90;;;;;;5056633;28;20021;-90
2021/01/24 11:05:55;;;;;;;9.52;3.67;;;5.50;99.90;;;;;;5054702;28;20123;-90
2021/01/24 11:08:21;;;;;;;5.47;2.58;;;5.50;99.90;;;;;;5038849;28;20040;-90
2021/01/24 11:10:56;;;;;;;5.85;2.42;;;5.40;99.90;;;;;;5055368;28;20052;-90
2021/01/24 11:13:23;;;;;;;8.40;2.72;;;5.40;99.90;;;;;;5039801;28;20033;-90
2021/01/24 11:15:49;;;;;;;9.05;2.67;;;5.30;99.90;;;;;;5054646;28;20372;-90
2021/01/24 11:18:14;;;;;;;10.13;3.03;;;5.50;99.90;;;;;;5055082;28;20054;-89
2021/01/24 11:20:45;;;;;;;8.20;3.75;;;5.40;99.90;;;;;;5055487;28;20032;-91
2021/01/24 11:23:12;;;;;;;11.02;3.83;;;5.50;99.90;;;;;;5056568;28;20341;-89
2021/01/24 11:25:39;;;;;;;8.55;3.85;;;5.60;99.90;;;;;;5057114;28;20460;-90
2021/01/24 11:28:07;;;;;;;9.23;3.15;;;5.60;99.90;;;;;;5056644;28;20021;-90
2021/01/24 11:30:33;;;;;;;7.35;2.97;;;5.60;99.90;;;;;;5056214;28;20099;-90
2021/01/24 11:33:01;;;;;;;6.78;2.55;;;5.70;99.90;;;;;;5039070;28;20423;-90
2021/01/24 11:35:27;;;;;;;7.60;2.25;;;5.70;99.90;;;;;;5054609;28;20120;-90
2021/01/24 11:37:53;;;;;;;7.70;2.15;;;5.60;99.90;;;;;;5054637;28;20111;-90
2021/01/24 11:40:18;;;;;;;5.05;2.00;;;5.50;99.90;;;;;;5057177;28;20072;-90
2021/01/24 11:42:44;;;;;;;5.70;2.00;;;5.50;99.90;;;;;;5056727;28;20501;-90
2021/01/24 11:45:10;;;;;;;8.60;2.30;;;5.50;99.90;;;;;;5058737;28;20063;-90
2021/01/24 11:47:36;;;;;;;10.82;2.35;;;5.50;99.90;;;;;;5061329;28;20039;-90
2021/01/24 11:50:05;;;;;;;5.95;2.20;;;5.60;99.90;;;;;;5061675;28;20111;-90
2021/01/24 11:52:30;;;;;;;6.30;2.35;;;5.70;99.90;;;;;;5061969;28;20025;-90
2021/01/24 11:54:58;;;;;;;4.90;2.00;;;5.60;99.90;;;;;;5044755;28;20025;-90
2021/01/24 11:57:26;;;;;;;6.72;2.38;;;5.50;99.90;;;;;;5062671;28;20036;-90
2021/01/24 11:59:52;;;;;;;9.10;2.28;;;5.50;99.90;;;;;;5061926;28;20497;-91
2021/01/24 12:02:21;;;;;;;12.95;2.97;;;5.50;99.90;;;;;;5058455;28;20024;-90
2021/01/24 12:04:47;;;;;;;8.65;2.97;;;5.50;99.90;;;;;;5057548;28;20062;-90
2021/01/24 12:07:13;;;;;;;7.53;2.60;;;5.60;99.90;;;;;;5057758;28;20459;-89
2021/01/24 12:09:42;;;;;;;8.43;2.78;;;5.50;99.90;;;;;;5057422;28;20021;-91
2021/01/24 12:12:09;;;;;;;8.20;2.75;;;5.50;99.90;;;;;;5058320;28;20036;-91
2021/01/24 12:14:35;;;;;;;8.85;2.88;;;5.60;99.90;;;;;;5057926;28;20478;-89
2021/01/24 12:17:01;;;;;;;8.23;2.50;;;5.50;99.90;;;;;;5040740;28;20036;-90
2021/01/24 12:19:29;;;;;;;6.32;2.85;;;5.50;99.90;;;;;;5075784;28;20031;-89
2021/01/24 12:21:56;;;;;;;7.22;2.55;;;5.50;99.90;;;;;;5057551;28;20465;-89
2021/01/24 12:24:25;;;;;;;5.75;2.50;;;5.60;99.90;;;;;;5057893;28;20089;-89
2021/01/24 12:26:50;;;;;;;7.68;2.85;;;5.60;99.90;;;;;;5056371;28;20036;-91
2021/01/24 12:29:16;;;;;;;6.82;2.50;;;5.60;99.90;;;;;;5056987;28;20163;-89
2021/01/24 12:31:46;;;;;;;7.65;2.67;;;5.60;99.90;;;;;;5058031;28;20032;-89
2021/01/24 12:34:11;;;;;;;8.52;3.22;;;5.60;99.90;;;;;;5040670;28;20036;-89
2021/01/24 12:36:40;;;;;;;4.60;2.58;;;5.50;99.90;;;;;;5057526;28;20036;-89
2021/01/24 12:39:07;;;;;;;11.95;3.13;;;5.30;99.90;;;;;;5057205;28;20032;-91
2021/01/24 12:41:35;;;;;;;14.57;3.83;;;5.40;99.90;;;;;;5057218;28;20025;-89
2021/01/24 12:44:01;;;;;;;7.13;2.72;;;5.40;99.90;;;;;;5056477;28;20147;-89
2021/01/24 12:46:26;;;;;;;6.07;2.67;;;5.30;99.90;;;;;;5056339;28;20120;-89
2021/01/24 12:48:55;;;;;;;5.22;2.88;;;5.30;99.90;;;;;;5056191;28;20115;-91
2021/01/24 12:51:21;;;;;;;7.00;2.75;;;5.40;99.90;;;;;;5057176;28;20028;-90
2021/01/24 12:54:10;;;;;;;8.82;2.90;;;5.40;99.90;;;;;;5057189;28;20029;-88
2021/01/24 12:56:35;;;;;;;7.18;3.20;;;5.40;99.90;;;;;;5058890;28;20090;-89
2021/01/24 12:59:01;;;;;;;7.40;2.72;;;5.30;99.90;;;;;;5039868;28;20036;-89
2021/01/24 13:01:27;;;;;;;4.30;2.80;;;5.20;99.90;;;;;;5056696;28;20040;-90
2021/01/24 13:03:52;;;;;;;7.28;2.75;;;5.10;99.90;;;;;;5056066;28;20469;-88
2021/01/24 13:06:18;;;;;;;6.93;3.08;;;5.20;99.90;;;;;;5058751;28;20033;-89